Time;durP1;ratioP1;P1;durP2;ratioP2;P2;SDS_P1;SDS_P2;PMS_P1;PMS_P2;Temp;Humidity;BMP_temperature;BMP_pressure;BME280_temperature;BME280_humidity;BME280_pressure;Samples;Min_cycle;Max_cycle;Signal;HPM_P1;HPM_P2
2023/10/28 00:00:38;;;;;;;0.87;0.87;;;10.90;99.90;;;;;;5040985;28;20438;-79
2023/10/28 00:03:30;;;;;;;1.03;0.93;;;10.90;99.90;;;;;;5035243;28;20530;-81
2023/10/28 00:06:25;;;;;;;1.50;0.70;;;10.90;99.90;;;;;;5041252;28;20903;-80
2023/10/28 00:09:31;;;;;;;0.80;0.80;;;10.90;99.90;;;;;;5040406;28;20477;-81
2023/10/28 00:12:33;;;;;;;1.53;0.80;;;10.90;99.90;;;;;;5039534;28;20445;-83
2023/10/28 00:25:28;;;;;;;0.80;0.80;;;10.90;99.90;;;;;;5036478;28;20442;-80
2023/10/28 00:31:46;;;;;;;0.83;0.83;;;10.90;99.90;;;;;;5017328;28;20489;-81
2023/10/28 00:34:45;;;;;;;0.80;0.73;;;10.90;99.90;;;;;;5023683;28;20494;-80
2023/10/28 00:37:36;;;;;;;1.57;0.90;;;10.90;99.90;;;;;;5036472;28;20474;-78
2023/10/28 00:40:30;;;;;;;1.43;0.70;;;10.90;99.90;;;;;;5036617;28;20520;-80
2023/10/28 00:49:00;;;;;;;1.10;0.80;;;10.80;99.90;;;;;;5035777;28;20462;-81
2023/10/28 00:54:56;;;;;;;1.07;0.80;;;10.80;99.90;;;;;;5035202;28;20434;-80
2023/10/28 01:00:35;;;;;;;2.00;0.80;;;10.80;99.90;;;;;;5038017;28;20947;-81
2023/10/28 01:03:30;;;;;;;;;;;;;;;;;;;;;
2023/10/28 01:06:16;;;;;;;0.80;0.80;;;10.70;99.90;;;;;;5042477;28;20450;-82
2023/10/28 01:09:28;;;;;;;1.63;0.90;;;10.90;99.90;;;;;;5040546;28;20466;-79
2023/10/28 01:16:08;;;;;;;0.87;0.80;;;10.70;99.90;;;;;;5004040;28;20426;-79
2023/10/28 01:22:50;;;;;;;2.00;1.03;;;10.70;99.90;;;;;;5007642;28;20431;-80
2023/10/28 01:29:22;;;;;;;2.00;0.70;;;10.70;99.90;;;;;;5041100;28;20823;-81
2023/10/28 01:32:14;;;;;;;4.60;1.10;;;10.70;99.90;;;;;;5049770;28;20455;-81
2023/10/28 01:35:19;;;;;;;1.10;1.00;;;10.70;99.90;;;;;;5040474;28;20465;-80
2023/10/28 01:38:10;;;;;;;1.80;1.00;;;10.70;99.90;;;;;;5051744;28;20490;-80
2023/10/28 01:41:05;;;;;;;1.80;1.00;;;10.70;99.90;;;;;;5052108;28;20453;-81
2023/10/28 01:43:59;;;;;;;1.33;0.77;;;10.70;99.90;;;;;;5050850;28;20454;-81
2023/10/28 01:49:31;;;;;;;1.13;0.83;;;10.70;99.90;;;;;;5051286;28;20455;-78
2023/10/28 01:52:15;;;;;;;2.83;1.20;;;10.70;99.90;;;;;;5052291;28;20450;-77
2023/10/28 01:55:01;;;;;;;1.60;1.17;;;10.70;99.90;;;;;;5051596;28;20460;-81
2023/10/28 01:57:39;;;;;;;2.90;1.00;;;10.60;99.90;;;;;;5051727;28;20481;-78
2023/10/28 02:00:25;;;;;;;;;;;;;;;;;;;;;
2023/10/28 02:03:11;;;;;;;1.00;1.00;;;10.60;99.90;;;;;;5053807;28;20429;-81
2023/10/28 02:06:12;;;;;;;0.83;0.83;;;10.60;99.90;;;;;;5052291;28;20446;-78
2023/10/28 02:12:30;;;;;;;2.93;1.00;;;10.60;99.90;;;;;;5041715;28;20434;-80
2023/10/28 02:15:09;;;;;;;1.70;0.90;;;10.60;99.90;;;;;;5053433;28;20450;-80
2023/10/28 02:17:50;;;;;;;2.03;1.33;;;10.60;99.90;;;;;;5053133;28;20454;-80
2023/10/28 02:20:28;;;;;;;1.47;1.37;;;10.60;99.90;;;;;;5053319;28;20461;-79
2023/10/28 02:23:08;;;;;;;1.60;1.00;;;10.60;99.90;;;;;;5053244;28;20450;-81
2023/10/28 02:25:54;;;;;;;1.40;1.10;;;10.50;99.90;;;;;;5053375;28;20488;-82
2023/10/28 02:28:36;;;;;;;0.90;0.90;;;10.50;99.90;;;;;;5053680;28;20474;-82
2023/10/28 02:31:22;;;;;;;1.13;0.80;;;10.50;99.90;;;;;;5051985;28;20482;-80
2023/10/28 02:34:27;;;;;;;;;;;;;;;;;;;;;
2023/10/28 02:37:11;;;;;;;0.80;0.80;;;10.60;99.90;;;;;;5044313;28;20474;-78
2023/10/28 02:43:05;;;;;;;1.17;1.00;;;10.50;99.90;;;;;;5053613;28;20465;-80
2023/10/28 02:45:56;;;;;;;4.00;1.33;;;10.50;99.90;;;;;;5057386;28;20443;-80
2023/10/28 02:48:43;;;;;;;2.70;1.20;;;10.50;99.90;;;;;;5056690;28;20497;-80
2023/10/28 02:51:34;;;;;;;1.60;1.20;;;10.50;99.90;;;;;;5056483;28;20485;-78
2023/10/28 02:57:49;;;;;;;1.33;1.10;;;10.50;99.90;;;;;;5049402;28;20482;-77
2023/10/28 03:00:49;;;;;;;3.03;1.30;;;10.60;99.90;;;;;;5055109;28;20446;-80
2023/10/28 03:03:45;;;;;;;2.00;1.20;;;10.50;99.90;;;;;;5054748;28;20459;-79
2023/10/28 03:06:28;;;;;;;1.60;1.10;;;10.50;99.90;;;;;;5051992;28;20454;-81
2023/10/28 03:12:12;;;;;;;2.30;1.20;;;10.50;99.90;;;;;;5031479;28;20487;-79
2023/10/28 03:15:13;;;;;;;2.33;1.57;;;10.50;99.90;;;;;;5032628;28;20477;-80
2023/10/28 03:18:04;;;;;;;2.20;1.20;;;10.50;99.90;;;;;;5007585;28;20502;-76
2023/10/28 03:20:59;;;;;;;2.40;2.20;;;10.50;99.90;;;;;;5019516;28;20443;-81
2023/10/28 03:23:51;;;;;;;;;;;;;;;;;;;;;
2023/10/28 03:26:46;;;;;;;2.10;1.60;;;10.50;99.90;;;;;;5027782;28;20519;-80
2023/10/28 03:29:32;;;;;;;2.63;2.00;;;10.50;99.90;;;;;;5026383;28;20502;-78
2023/10/28 03:32:49;;;;;;;2.83;1.50;;;10.40;99.90;;;;;;5026452;28;20555;-81
2023/10/28 03:35:44;;;;;;;2.40;1.47;;;10.40;99.90;;;;;;5013723;28;20448;-79
2023/10/28 03:38:52;;;;;;;1.97;1.33;;;10.40;99.90;;;;;;5022534;28;20560;-81
2023/10/28 03:45:33;;;;;;;2.67;1.37;;;10.40;99.90;;;;;;5034182;28;20474;-80
2023/10/28 03:48:42;;;;;;;;;;;;;;;;;;;;;
2023/10/28 03:51:43;;;;;;;4.47;1.37;;;10.40;99.90;;;;;;5041427;28;20544;-81
2023/10/28 03:54:51;;;;;;;4.60;2.00;;;10.40;99.90;;;;;;5041283;28;20493;-81
2023/10/28 03:58:20;;;;;;;4.07;1.70;;;10.50;99.90;;;;;;5035263;28;20489;-81
2023/10/28 04:01:24;;;;;;;2.87;1.93;;;10.40;99.90;;;;;;4998571;28;20876;-81
2023/10/28 04:04:22;;;;;;;5.70;1.73;;;10.50;99.90;;;;;;5011837;28;20447;-78
2023/10/28 04:10:55;;;;;;;1.57;1.40;;;10.50;99.90;;;;;;5006537;28;20478;-80
2023/10/28 04:16:52;;;;;;;2.50;1.87;;;10.60;99.90;;;;;;5044454;28;20504;-81
2023/10/28 04:19:38;;;;;;;3.30;1.60;;;10.50;99.90;;;;;;5048048;28;20438;-80
2023/10/28 04:22:28;;;;;;;1.90;1.40;;;10.60;99.90;;;;;;5046886;28;20774;-78
2023/10/28 04:25:11;;;;;;;3.80;1.40;;;10.70;99.90;;;;;;5046211;28;20446;-79
2023/10/28 04:27:59;;;;;;;8.13;1.77;;;10.70;99.90;;;;;;5047030;28;20486;-80
2023/10/28 04:30:38;;;;;;;9.27;1.70;;;10.70;99.90;;;;;;5046924;28;20549;-79
2023/10/28 04:36:11;;;;;;;2.27;1.50;;;10.70;99.90;;;;;;5042410;28;20453;-79
2023/10/28 04:39:04;;;;;;;2.40;1.20;;;10.80;99.90;;;;;;5043722;28;20470;-82
2023/10/28 04:42:02;;;;;;;2.87;2.53;;;10.80;99.90;;;;;;5047071;28;20447;-78
2023/10/28 04:48:08;;;;;;;2.10;1.10;;;10.80;99.90;;;;;;5044682;28;20498;-78
2023/10/28 04:51:04;;;;;;;3.83;1.20;;;10.60;99.90;;;;;;5044919;28;20477;-81
2023/10/28 04:53:50;;;;;;;3.13;1.47;;;10.80;99.90;;;;;;5046123;28;20460;-80
2023/10/28 04:56:33;;;;;;;1.93;1.60;;;10.80;99.90;;;;;;5046482;28;20450;-82
2023/10/28 04:59:50;;;;;;;2.10;1.20;;;10.80;99.90;;;;;;5049336;28;20549;-82
2023/10/28 05:02:50;;;;;;;3.17;1.33;;;10.70;99.90;;;;;;5053994;28;20528;-80
2023/10/28 05:13:23;;;;;;;1.80;1.57;;;10.70;99.90;;;;;;5011665;28;20484;-81
2023/10/28 05:39:23;;;;;;;3.93;1.10;;;10.50;99.90;;;;;;5056119;28;20446;-81
2023/10/28 05:42:26;;;;;;;3.10;1.50;;;10.50;99.90;;;;;;5054817;28;20477;-80
2023/10/28 05:45:31;;;;;;;1.53;1.43;;;10.50;99.90;;;;;;5052877;28;20438;-80
2023/10/28 05:48:33;;;;;;;;;;;;;;;;;;;;;
2023/10/28 05:51:43;;;;;;;1.60;1.50;;;10.50;99.90;;;;;;5054571;28;20484;-80
2023/10/28 05:54:44;;;;;;;5.20;1.30;;;10.50;99.90;;;;;;5046951;28;20541;-79
2023/10/28 05:57:46;;;;;;;1.77;1.30;;;10.50;99.90;;;;;;5054805;28;20501;-81
2023/10/28 06:00:50;;;;;;;1.60;1.33;;;10.50;99.90;;;;;;5054730;28;20461;-79
2023/10/28 06:03:46;;;;;;;3.10;1.37;;;10.50;99.90;;;;;;5050710;28;20454;-78
2023/10/28 06:06:24;;;;;;;1.90;1.37;;;10.50;99.90;;;;;;5050515;28;20463;-79
2023/10/28 06:09:11;;;;;;;5.07;1.40;;;10.60;99.90;;;;;;5047990;28;20522;-79
2023/10/28 06:12:13;;;;;;;2.27;1.50;;;10.60;99.90;;;;;;5052110;28;20501;-79
2023/10/28 06:14:56;;;;;;;5.37;1.73;;;10.60;99.90;;;;;;5054090;28;20452;-78
2023/10/28 06:17:49;;;;;;;2.87;1.43;;;10.60;99.90;;;;;;5054976;28;20497;-79
2023/10/28 06:20:35;;;;;;;3.40;1.50;;;10.60;99.90;;;;;;5049671;28;20486;-78
2023/10/28 06:23:18;;;;;;;1.60;1.30;;;10.60;99.90;;;;;;5052076;28;20454;-80
2023/10/28 06:26:02;;;;;;;3.07;1.53;;;10.60;99.90;;;;;;5045931;28;20449;-79
2023/10/28 06:28:49;;;;;;;3.17;2.03;;;10.60;99.90;;;;;;5044485;28;20505;-82
2023/10/28 06:31:54;;;;;;;3.77;1.87;;;10.60;99.90;;;;;;5045183;28;20484;-80
2023/10/28 06:34:43;;;;;;;4.13;1.77;;;10.60;99.90;;;;;;5048957;28;20447;-83
2023/10/28 06:37:46;;;;;;;4.50;1.70;;;10.70;99.90;;;;;;5049594;28;20457;-83
2023/10/28 06:40:18;;;;;;;1.73;1.63;;;10.70;99.90;;;;;;5047608;28;20450;-79
2023/10/28 06:45:51;;;;;;;1.87;1.77;;;10.70;99.90;;;;;;5037697;28;20426;-78
2023/10/28 06:49:06;;;;;;;2.53;1.53;;;10.70;99.90;;;;;;5042851;28;20548;-81
2023/10/28 06:55:17;;;;;;;2.47;1.60;;;10.50;99.90;;;;;;5008835;28;20447;-79
2023/10/28 06:57:52;;;;;;;1.60;1.50;;;10.80;99.90;;;;;;5040325;28;20501;-83
2023/10/28 07:00:53;;;;;;;2.47;2.00;;;10.80;99.90;;;;;;5047447;28;20484;-83
2023/10/28 07:04:19;;;;;;;;;;;;;;;;;;;;;
2023/10/28 07:07:36;;;;;;;;;;;;;;;;;;;;;
2023/10/28 07:14:34;;;;;;;4.60;1.80;;;11.00;99.90;;;;;;5058882;28;20453;-77
2023/10/28 07:26:20;;;;;;;3.83;1.90;;;11.80;99.90;;;;;;5055885;28;20458;-79
2023/10/28 07:29:32;;;;;;;5.00;1.87;;;12.20;99.90;;;;;;5033503;28;20525;-79
2023/10/28 07:32:41;;;;;;;2.30;1.70;;;12.40;99.90;;;;;;4983444;28;20471;-81
2023/10/28 07:36:01;;;;;;;1.70;1.60;;;12.60;99.90;;;;;;5028146;28;20490;-79
2023/10/28 07:42:17;;;;;;;2.60;1.67;;;12.40;99.90;;;;;;5046498;28;20466;-80
2023/10/28 07:47:53;;;;;;;3.07;2.27;;;12.20;99.90;;;;;;5056141;28;20498;-81
2023/10/28 07:54:19;;;;;;;1.97;1.50;;;12.40;99.90;;;;;;4924558;29;20439;-79
2023/10/28 07:57:11;;;;;;;2.53;1.60;;;12.50;99.90;;;;;;4955934;29;20507;-79
2023/10/28 08:00:11;;;;;;;3.97;1.80;;;12.80;99.90;;;;;;4980212;28;20454;-79
2023/10/28 08:05:39;;;;;;;3.70;1.60;;;12.90;99.90;;;;;;5044434;28;20480;-82
2023/10/28 08:08:30;;;;;;;3.13;1.63;;;12.80;99.90;;;;;;5045013;28;20450;-79
2023/10/28 08:11:30;;;;;;;;;;;;;;;;;;;;;
2023/10/28 08:14:15;;;;;;;3.13;1.50;;;12.90;99.90;;;;;;5042624;28;20442;-79
2023/10/28 08:17:11;;;;;;;4.10;2.10;;;12.90;99.90;;;;;;5050321;28;20461;-81
2023/10/28 08:20:35;;;;;;;6.30;1.60;;;13.20;99.90;;;;;;5048094;28;20465;-80
2023/10/28 08:24:11;;;;;;;1.97;1.40;;;13.50;99.90;;;;;;5005727;28;20456;-78
2023/10/28 08:27:29;;;;;;;5.47;1.60;;;13.70;99.90;;;;;;5048082;28;20454;-79
2023/10/28 08:30:55;;;;;;;3.90;1.67;;;13.80;99.90;;;;;;4990768;28;20465;-81
2023/10/28 08:34:05;;;;;;;1.63;1.40;;;14.10;99.90;;;;;;4999861;28;20505;-80
2023/10/28 08:40:41;;;;;;;3.30;1.47;;;14.40;99.90;;;;;;5056593;28;20426;-80
2023/10/28 08:46:32;;;;;;;1.17;1.10;;;14.80;99.90;;;;;;5044816;28;20457;-79
2023/10/28 08:49:07;;;;;;;4.30;1.40;;;15.00;99.90;;;;;;5055126;28;20472;-82
2023/10/28 08:52:17;;;;;;;2.60;1.77;;;15.20;99.90;;;;;;5056177;28;20438;-82
2023/10/28 08:55:09;;;;;;;2.97;1.67;;;15.30;99.90;;;;;;5055678;28;20477;-84
2023/10/28 09:00:50;;;;;;;4.73;1.57;;;15.60;99.90;;;;;;5049660;28;20453;-81
2023/10/28 09:03:27;;;;;;;2.13;1.17;;;15.50;99.90;;;;;;5052473;28;20435;-80
2023/10/28 09:05:56;;;;;;;4.80;1.43;;;15.10;99.90;;;;;;5050711;28;20446;-80
2023/10/28 09:08:33;;;;;;;3.40;1.23;;;15.00;99.90;;;;;;5045382;28;20470;-81
2023/10/28 09:11:05;;;;;;;2.00;1.20;;;15.40;99.90;;;;;;5044265;28;20453;-81
2023/10/28 09:13:38;;;;;;;5.80;1.30;;;15.30;99.90;;;;;;5039476;28;20509;-80
2023/10/28 09:16:19;;;;;;;2.30;1.50;;;15.60;99.90;;;;;;5038075;28;20447;-79
2023/10/28 09:19:23;;;;;;;6.17;1.63;;;15.60;99.90;;;;;;5037220;28;20593;-78
2023/10/28 09:22:04;;;;;;;2.83;1.13;;;15.70;99.90;;;;;;5035995;28;20446;-80
2023/10/28 09:24:42;;;;;;;2.23;1.60;;;15.70;99.90;;;;;;5047388;28;20435;-79
2023/10/28 09:27:28;;;;;;;3.00;1.40;;;15.50;99.90;;;;;;5048778;28;20513;-78
2023/10/28 09:30:17;;;;;;;3.50;1.90;;;15.90;99.90;;;;;;5046469;28;20469;-80
2023/10/28 09:33:09;;;;;;;3.50;1.43;;;15.90;99.90;;;;;;5050160;28;20482;-81
2023/10/28 09:36:13;;;;;;;2.50;1.20;;;15.90;99.90;;;;;;5048971;28;20450;-79
2023/10/28 09:42:06;;;;;;;1.40;1.10;;;15.90;99.90;;;;;;5052130;28;20422;-82
2023/10/28 09:44:53;;;;;;;1.40;1.30;;;15.70;99.90;;;;;;5048846;28;20437;-79
2023/10/28 09:47:32;;;;;;;3.20;1.50;;;15.70;99.90;;;;;;5052330;28;20517;-80
2023/10/28 09:50:27;;;;;;;3.17;1.70;;;15.60;99.90;;;;;;5055252;28;20469;-82
2023/10/28 09:53:23;;;;;;;3.30;1.43;;;15.90;99.90;;;;;;5055876;28;20533;-81
2023/10/28 09:56:25;;;;;;;5.00;1.80;;;15.60;99.90;;;;;;5053325;28;20476;-80
2023/10/28 09:59:20;;;;;;;4.67;2.20;;;15.40;99.90;;;;;;5052557;28;20461;-81
2023/10/28 10:02:11;;;;;;;3.43;1.50;;;15.50;99.90;;;;;;5054026;28;20466;-81
2023/10/28 10:05:10;;;;;;;3.10;1.20;;;15.60;99.90;;;;;;5053867;28;20449;-81
2023/10/28 10:07:59;;;;;;;5.70;1.67;;;15.80;99.90;;;;;;5051021;28;20525;-80
2023/10/28 10:11:11;;;;;;;4.40;1.63;;;16.00;99.90;;;;;;5051141;28;20451;-79
2023/10/28 10:17:38;;;;;;;3.37;1.67;;;16.60;99.90;;;;;;5046973;28;20482;-81
2023/10/28 10:20:39;;;;;;;1.57;1.47;;;16.90;99.90;;;;;;5034208;28;20492;-78
2023/10/28 10:23:20;;;;;;;2.80;1.90;;;17.10;99.90;;;;;;5058825;28;20441;-81
2023/10/28 10:26:07;;;;;;;3.53;1.73;;;17.10;99.90;;;;;;5058428;28;20438;-80
2023/10/28 10:31:59;;;;;;;3.83;1.87;;;16.70;99.90;;;;;;5058225;28;20427;-79
2023/10/28 10:35:15;;;;;;;3.30;1.93;;;17.10;99.90;;;;;;5060357;28;20430;-78
2023/10/28 10:38:07;;;;;;;3.90;1.77;;;17.10;99.90;;;;;;5053550;28;20489;-80
2023/10/28 10:41:04;;;;;;;1.90;1.70;;;17.10;99.90;;;;;;5059189;28;20461;-81
2023/10/28 10:43:42;;;;;;;;;;;;;;;;;;;;;
2023/10/28 10:46:15;;;;;;;3.80;1.70;;;16.90;99.90;;;;;;5056801;28;20430;-80
2023/10/28 10:49:33;;;;;;;3.17;1.70;;;17.20;99.90;;;;;;5054861;28;20470;-79
2023/10/28 10:52:19;;;;;;;3.60;1.40;;;17.40;99.90;;;;;;5055510;28;20525;-82
2023/10/28 10:55:21;;;;;;;3.57;1.30;;;17.60;99.90;;;;;;5055801;28;20545;-80
2023/10/28 10:58:33;;;;;;;3.07;1.57;;;17.40;99.90;;;;;;5053667;28;20473;-80
2023/10/28 11:01:33;;;;;;;2.83;1.73;;;17.40;99.90;;;;;;5053985;28;20458;-82
2023/10/28 11:04:12;;;;;;;2.90;1.73;;;17.60;99.90;;;;;;5055718;28;20454;-80
2023/10/28 11:10:06;;;;;;;;;;;;;;;;;;;;;
2023/10/28 11:12:46;;;;;;;4.93;1.67;;;16.90;99.90;;;;;;5055666;28;20474;-80
2023/10/28 11:15:34;;;;;;;2.50;1.77;;;16.80;99.90;;;;;;5054143;28;20431;-82
2023/10/28 11:18:43;;;;;;;;;;;;;;;;;;;;;
2023/10/28 11:24:27;;;;;;;3.33;2.00;;;16.40;99.90;;;;;;5051099;28;20446;-80
2023/10/28 11:27:34;;;;;;;2.97;1.87;;;16.50;99.90;;;;;;5054548;28;20462;-79
2023/10/28 11:30:18;;;;;;;3.80;2.00;;;16.60;99.90;;;;;;5043908;28;20457;-80
2023/10/28 11:33:28;;;;;;;3.63;1.80;;;16.60;99.90;;;;;;5054407;28;20497;-82
2023/10/28 11:39:20;;;;;;;4.73;1.83;;;16.40;99.90;;;;;;5052363;28;20490;-82
2023/10/28 11:42:23;;;;;;;3.57;1.90;;;16.40;99.90;;;;;;5045659;28;20806;-82
2023/10/28 11:45:34;;;;;;;3.60;2.07;;;16.30;99.90;;;;;;5042545;28;20447;-81
2023/10/28 11:51:51;;;;;;;3.50;2.00;;;16.20;99.90;;;;;;4978854;28;20453;-80
2023/10/28 11:57:54;;;;;;;;;;;;;;;;;;;;;
2023/10/28 12:00:28;;;;;;;4.03;2.17;;;16.10;99.90;;;;;;5046613;28;20430;-81
2023/10/28 12:03:16;;;;;;;4.07;2.40;;;16.30;99.90;;;;;;5047641;28;20438;-83
2023/10/28 12:06:07;;;;;;;9.53;5.17;;;16.00;99.90;;;;;;5051866;28;20446;-80
2023/10/28 12:12:09;;;;;;;3.30;1.90;;;16.10;99.90;;;;;;5051996;28;20541;-80
2023/10/28 12:14:54;;;;;;;3.70;2.10;;;15.80;99.90;;;;;;5057793;28;20482;-82
2023/10/28 12:17:31;;;;;;;4.23;2.70;;;15.60;99.90;;;;;;5057229;28;20996;-77
2023/10/28 12:20:29;;;;;;;3.53;1.93;;;15.80;99.90;;;;;;5055231;28;20878;-80
2023/10/28 12:23:16;;;;;;;4.80;2.50;;;15.80;99.90;;;;;;5055825;28;20450;-80
2023/10/28 12:25:55;;;;;;;4.20;2.00;;;15.40;99.90;;;;;;5055054;28;20438;-80
2023/10/28 12:28:51;;;;;;;5.70;2.57;;;15.40;99.90;;;;;;5054943;28;20573;-81
2023/10/28 12:31:35;;;;;;;2.73;2.13;;;15.60;99.90;;;;;;5055318;28;20473;-82
2023/10/28 12:34:18;;;;;;;4.40;2.30;;;15.30;99.90;;;;;;5055866;28;20518;-81
2023/10/28 12:37:26;;;;;;;3.57;2.00;;;15.70;99.90;;;;;;5054994;28;20504;-83
2023/10/28 12:40:52;;;;;;;;;;;;;;;;;;;;;
2023/10/28 12:43:53;;;;;;;4.50;2.00;;;15.80;99.90;;;;;;4957300;29;20535;-83
2023/10/28 12:46:59;;;;;;;4.23;2.10;;;15.90;99.90;;;;;;4949793;29;20459;-83
2023/10/28 12:49:54;;;;;;;4.53;2.10;;;15.90;99.90;;;;;;4890607;29;20473;-81
2023/10/28 13:02:31;;;;;;;4.40;2.53;;;16.10;99.90;;;;;;5052450;28;20445;-80
2023/10/28 13:05:55;;;;;;;3.00;2.10;;;16.00;99.90;;;;;;5057474;28;20448;-82
2023/10/28 13:08:43;;;;;;;3.97;2.07;;;15.90;99.90;;;;;;5051894;28;20533;-80
2023/10/28 13:11:45;;;;;;;4.37;1.97;;;15.90;99.90;;;;;;5057017;28;20438;-80
2023/10/28 13:14:39;;;;;;;6.17;3.00;;;15.90;99.90;;;;;;5057955;28;20472;-87
2023/10/28 13:17:42;;;;;;;3.13;2.20;;;16.10;99.90;;;;;;5058189;28;20473;-77
2023/10/28 13:20:43;;;;;;;3.60;1.83;;;16.00;99.90;;;;;;5057625;28;20453;-85
2023/10/28 13:23:31;;;;;;;4.40;1.60;;;16.00;99.90;;;;;;5053758;28;20439;-81
2023/10/28 13:26:41;;;;;;;4.03;2.20;;;15.80;99.90;;;;;;5048258;28;20522;-81
2023/10/28 13:33:40;;;;;;;4.77;2.43;;;15.70;99.90;;;;;;5012337;28;20923;-80
2023/10/28 13:36:58;;;;;;;4.83;2.30;;;15.40;99.90;;;;;;5037926;28;20466;-79
2023/10/28 13:40:11;;;;;;;4.10;2.20;;;15.70;99.90;;;;;;5021899;28;20520;-80
2023/10/28 13:43:31;;;;;;;4.87;2.40;;;15.70;99.90;;;;;;5023994;28;20450;-82
2023/10/28 13:48:58;;;;;;;3.80;3.40;;;15.50;99.90;;;;;;5039721;28;20510;-80
2023/10/28 13:52:02;;;;;;;3.53;2.40;;;15.50;99.90;;;;;;5042053;28;20430;-80
2023/10/28 13:55:06;;;;;;;5.30;2.90;;;15.60;99.90;;;;;;5042570;28;20478;-82
2023/10/28 13:58:15;;;;;;;5.73;3.13;;;15.60;99.90;;;;;;5040069;28;20474;-83
2023/10/28 14:01:25;;;;;;;2.30;1.60;;;15.40;99.90;;;;;;5039011;28;20446;-80
2023/10/28 14:04:12;;;;;;;3.40;2.27;;;15.60;99.90;;;;;;5041923;28;20434;-81
2023/10/28 14:16:44;;;;;;;3.93;2.90;;;15.50;99.90;;;;;;5037513;28;20435;-80
2023/10/28 14:19:39;;;;;;;4.60;2.10;;;15.60;99.90;;;;;;5039214;28;20469;-82
2023/10/28 14:22:32;;;;;;;5.77;2.00;;;15.60;99.90;;;;;;5039226;28;20454;-81
2023/10/28 14:25:34;;;;;;;;;;;;;;;;;;;;;
2023/10/28 14:31:33;;;;;;;6.47;2.50;;;15.40;99.90;;;;;;5026601;28;20461;-82
2023/10/28 14:34:28;;;;;;;5.70;2.63;;;15.40;99.90;;;;;;5042005;28;20566;-83
2023/10/28 14:41:02;;;;;;;5.23;2.90;;;15.30;99.90;;;;;;5042517;28;20476;-82
2023/10/28 14:44:14;;;;;;;;;;;;;;;;;;;;;
2023/10/28 14:47:16;;;;;;;4.47;2.70;;;15.20;99.90;;;;;;5046834;28;20460;-84
2023/10/28 14:50:08;;;;;;;7.43;3.90;;;15.00;99.90;;;;;;5045919;28;20447;-82
2023/10/28 14:52:57;;;;;;;6.83;3.37;;;15.10;99.90;;;;;;5046666;28;20454;-81
2023/10/28 14:59:01;;;;;;;4.30;2.60;;;15.10;99.90;;;;;;5014688;28;20470;-82
2023/10/28 15:05:06;;;;;;;4.60;2.67;;;15.00;99.90;;;;;;5044832;28;20980;-80
2023/10/28 15:07:55;;;;;;;6.70;2.87;;;15.00;99.90;;;;;;5046726;28;20470;-80
2023/10/28 15:13:33;;;;;;;6.77;2.83;;;15.20;99.90;;;;;;5048148;28;21015;-81
2023/10/28 15:19:57;;;;;;;4.37;2.90;;;15.00;99.90;;;;;;5042564;28;20446;-80
2023/10/28 15:23:05;;;;;;;6.50;3.80;;;15.00;99.90;;;;;;4991974;28;20458;-80
2023/10/28 15:26:01;;;;;;;5.33;3.13;;;14.90;99.90;;;;;;5000826;28;21365;-80
2023/10/28 15:31:54;;;;;;;;;;;;;;;;;;;;;
2023/10/28 15:41:31;;;;;;;4.10;3.03;;;14.80;99.90;;;;;;4967607;28;20457;-81
2023/10/28 15:44:26;;;;;;;5.07;3.47;;;14.80;99.90;;;;;;4942461;29;20454;-82
2023/10/28 15:50:45;;;;;;;6.27;3.10;;;14.70;99.90;;;;;;5037428;28;20503;-81
2023/10/28 15:53:52;;;;;;;;;;;;;;;;;;;;;
2023/10/28 15:56:51;;;;;;;5.67;2.93;;;14.60;99.90;;;;;;5044651;28;20457;-82
2023/10/28 16:00:32;;;;;;;;;;;;;;;;;;;;;
2023/10/28 16:03:37;;;;;;;6.27;4.13;;;14.60;99.90;;;;;;4946041;29;20447;-84
2023/10/28 16:06:23;;;;;;;6.33;4.67;;;14.60;99.90;;;;;;5043851;28;20450;-82
2023/10/28 16:09:23;;;;;;;6.27;3.57;;;14.60;99.90;;;;;;5045009;28;20459;-82
2023/10/28 16:12:34;;;;;;;4.77;2.90;;;14.60;99.90;;;;;;5041826;28;20477;-81
2023/10/28 16:15:38;;;;;;;;;;;;;;;;;;;;;
2023/10/28 16:18:52;;;;;;;6.60;2.87;;;14.60;99.90;;;;;;5039481;28;20462;-83
2023/10/28 16:21:53;;;;;;;;;;;;;;;;;;;;;
2023/10/28 16:24:39;;;;;;;4.13;2.93;;;14.50;99.90;;;;;;5034671;28;20541;-84
2023/10/28 16:27:47;;;;;;;3.40;2.93;;;14.60;99.90;;;;;;5039786;28;20470;-81
2023/10/28 16:30:27;;;;;;;4.97;3.47;;;14.50;99.90;;;;;;5038318;28;20860;-82
2023/10/28 16:36:26;;;;;;;8.03;3.67;;;14.50;99.90;;;;;;5037294;28;20931;-81
2023/10/28 16:39:51;;;;;;;6.17;4.07;;;14.50;99.90;;;;;;5039445;28;20454;-83
2023/10/28 16:49:34;;;;;;;8.17;4.30;;;14.50;99.90;;;;;;5134595;22;20862;-82
2023/10/28 17:53:04;;;;;;;6.73;3.47;;;14.20;99.90;;;;;;4964845;28;20525;-83
2023/10/28 18:01:35;;;;;;;6.57;4.20;;;14.00;99.90;;;;;;5038934;28;20547;-84
2023/10/28 18:04:09;;;;;;;3.90;3.43;;;13.90;99.90;;;;;;5053587;28;20429;-81
2023/10/28 18:10:50;;;;;;;;;;;;;;;;;;;;;
2023/10/28 18:14:01;;;;;;;8.67;4.53;;;13.90;99.90;;;;;;5043141;28;20462;-82
2023/10/28 18:26:59;;;;;;;5.63;4.23;;;13.90;99.90;;;;;;4945623;28;20442;-80
2023/10/28 18:33:57;;;;;;;;;;;;;;;;;;;;;
2023/10/28 18:44:19;;;;;;;10.00;8.03;;;13.60;99.90;;;;;;5035108;28;20434;-81
2023/10/28 18:56:29;;;;;;;8.57;7.60;;;13.60;99.90;;;;;;4988303;28;20520;-83
2023/10/28 18:59:44;;;;;;;9.80;7.60;;;13.60;99.90;;;;;;5046422;28;20478;-82
2023/10/28 19:05:48;;;;;;;7.73;5.87;;;13.50;99.90;;;;;;5007675;28;20441;-80
2023/10/28 19:14:47;;;;;;;10.80;6.80;;;13.50;99.90;;;;;;5005108;28;20859;-81
2023/10/28 19:17:34;;;;;;;9.70;7.47;;;13.60;99.90;;;;;;5031575;28;20647;-81
2023/10/28 19:20:18;;;;;;;12.17;8.50;;;13.40;99.90;;;;;;5043402;28;20451;-81
2023/10/28 19:23:04;;;;;;;11.53;6.93;;;13.30;99.90;;;;;;5040884;28;20917;-82
2023/10/28 19:26:21;;;;;;;8.53;6.90;;;13.40;99.90;;;;;;5039023;28;20462;-81
2023/10/28 19:31:56;;;;;;;10.23;6.70;;;13.30;99.90;;;;;;5027535;28;20541;-80
2023/10/28 19:34:49;;;;;;;11.93;7.00;;;13.30;99.90;;;;;;5038932;28;20450;-83
2023/10/28 19:37:31;;;;;;;15.20;7.70;;;13.20;99.90;;;;;;5039028;28;20466;-81
2023/10/28 19:40:45;;;;;;;10.07;7.70;;;13.20;99.90;;;;;;5040698;28;20447;-83
2023/10/28 19:46:57;;;;;;;8.93;7.03;;;13.30;99.90;;;;;;4952629;29;20529;-82
2023/10/28 19:49:33;;;;;;;8.17;7.07;;;13.00;99.90;;;;;;4961756;29;20450;-83
2023/10/28 19:52:05;;;;;;;12.07;7.63;;;13.20;99.90;;;;;;4964640;29;20470;-83
2023/10/28 19:58:41;;;;;;;;;;;;;;;;;;;;;
2023/10/28 20:02:14;;;;;;;9.20;7.63;;;13.00;99.90;;;;;;5020080;28;20477;-84
2023/10/28 20:05:50;;;;;;;9.57;7.27;;;12.80;99.90;;;;;;5015694;28;20454;-81
2023/10/28 20:08:37;;;;;;;8.40;7.20;;;12.90;99.90;;;;;;5026425;28;20464;-80
2023/10/28 20:11:27;;;;;;;9.47;6.73;;;12.90;99.90;;;;;;5026129;28;20471;-83
2023/10/28 20:14:19;;;;;;;6.80;5.10;;;12.90;99.90;;;;;;5026239;28;20542;-81
2023/10/28 20:17:36;;;;;;;7.50;5.80;;;12.90;99.90;;;;;;5027023;28;20454;-82
2023/10/28 20:20:52;;;;;;;5.33;4.50;;;12.90;99.90;;;;;;5027934;28;20450;-81
2023/10/28 20:24:11;;;;;;;6.83;5.07;;;12.90;99.90;;;;;;5025140;28;20459;-82
2023/10/28 20:27:08;;;;;;;;;;;;;;;;;;;;;
2023/10/28 20:30:00;;;;;;;8.43;6.13;;;12.90;99.90;;;;;;5026249;28;20463;-81
2023/10/28 20:33:02;;;;;;;12.43;5.00;;;12.90;99.90;;;;;;5019156;28;20451;-80
2023/10/28 20:36:25;;;;;;;6.73;4.03;;;12.90;99.90;;;;;;5029023;28;20436;-82
2023/10/28 20:39:31;;;;;;;4.87;3.87;;;13.00;99.90;;;;;;5026253;28;20506;-83
2023/10/28 20:42:29;;;;;;;4.90;3.80;;;13.10;99.90;;;;;;4998031;28;20513;-83
2023/10/28 20:45:16;;;;;;;6.20;3.90;;;13.10;99.90;;;;;;5026286;28;20436;-81
2023/10/28 20:48:06;;;;;;;4.60;4.20;;;12.90;99.90;;;;;;5025899;28;20470;-80
2023/10/28 20:53:25;;;;;;;6.37;3.90;;;13.20;99.90;;;;;;5016541;28;20487;-82
2023/10/28 20:59:28;;;;;;;5.33;3.63;;;13.30;99.90;;;;;;5013913;28;20876;-81
2023/10/28 21:02:22;;;;;;;5.50;3.97;;;13.30;99.90;;;;;;5027745;28;20451;-83
2023/10/28 21:05:33;;;;;;;7.97;3.70;;;13.30;99.90;;;;;;5043773;28;20439;-81
2023/10/28 21:08:14;;;;;;;4.77;3.80;;;13.30;99.90;;;;;;4978625;28;20580;-83
2023/10/28 21:10:52;;;;;;;4.67;4.00;;;13.40;99.90;;;;;;4978907;28;20453;-81
2023/10/28 21:13:34;;;;;;;5.40;4.10;;;13.50;99.90;;;;;;4977195;28;20500;-81
2023/10/28 21:23:18;;;;;;;4.73;4.23;;;13.50;99.90;;;;;;5002871;28;20443;-82
2023/10/28 21:26:09;;;;;;;;;;;;;;;;;;;;;
2023/10/28 21:29:15;;;;;;;4.47;3.80;;;13.50;99.90;;;;;;5037703;28;21012;-82
2023/10/28 21:32:01;;;;;;;3.90;3.60;;;13.30;99.90;;;;;;5048268;28;20426;-82
2023/10/28 21:34:59;;;;;;;;;;;;;;;;;;;;;
2023/10/28 21:38:10;;;;;;;4.10;3.70;;;13.80;99.90;;;;;;5043440;28;20485;-81
2023/10/28 21:50:28;;;;;;;5.63;4.73;;;13.50;99.90;;;;;;5047094;28;20532;-81
2023/10/28 21:53:49;;;;;;;6.43;3.97;;;13.40;99.90;;;;;;5050204;28;20450;-83
2023/10/28 21:56:54;;;;;;;6.07;4.00;;;13.40;99.90;;;;;;5047609;28;20492;-83
2023/10/28 21:59:44;;;;;;;5.57;4.00;;;13.40;99.90;;;;;;5046533;28;20470;-81
2023/10/28 22:02:54;;;;;;;5.33;3.73;;;13.40;99.90;;;;;;5045459;28;20540;-83
2023/10/28 22:05:29;;;;;;;4.20;3.80;;;13.40;99.90;;;;;;5046816;28;20431;-82
2023/10/28 22:08:22;;;;;;;4.17;3.60;;;13.40;99.90;;;;;;5046469;28;20529;-82